createdAt,value
2017-06-18T00:01:19.066Z,8.07
2017-06-18T00:03:45.423Z,8.33
2017-06-18T00:06:11.755Z,8.37
2017-06-18T00:08:38.087Z,8.27
2017-06-18T00:11:04.428Z,9.60
2017-06-18T00:13:30.772Z,8.60
2017-06-18T00:33:15.700Z,7.33
2017-06-18T00:35:42.114Z,8.07
2017-06-18T00:38:08.484Z,7.53
2017-06-18T00:40:34.873Z,8.17
2017-06-18T00:43:01.232Z,7.73
2017-06-18T00:45:27.628Z,7.37
2017-06-18T00:47:54.034Z,7.70
2017-06-18T00:50:20.423Z,7.97
2017-06-18T00:52:46.836Z,8.47
2017-06-18T00:58:05.520Z,8.50
2017-06-18T01:00:31.976Z,8.47
2017-06-18T01:02:58.409Z,8.47
2017-06-18T01:05:25.107Z,8.83
2017-06-18T01:07:53.355Z,8.40
2017-06-18T01:10:19.784Z,9.43
2017-06-18T01:12:46.285Z,8.70
2017-06-18T01:15:12.865Z,8.10
2017-06-18T01:17:45.695Z,8.10
2017-06-18T01:20:12.148Z,8.30
2017-06-18T01:22:38.557Z,8.17
2017-06-18T01:25:04.957Z,8.80
2017-06-18T01:27:31.445Z,8.10
2017-06-18T01:29:58.027Z,8.47
2017-06-18T01:32:24.684Z,8.00
2017-06-18T01:34:51.106Z,8.90
2017-06-18T01:37:17.554Z,7.90
2017-06-18T01:39:44.190Z,8.70
2017-06-18T01:42:10.777Z,7.90
2017-06-18T01:44:37.258Z,8.10
2017-06-18T01:47:04.044Z,6.67
2017-06-18T01:49:30.446Z,8.47
2017-06-18T01:51:56.817Z,9.10
2017-06-18T01:54:23.206Z,10.20
2017-06-18T01:56:49.574Z,8.80
2017-06-18T01:59:15.930Z,8.40
2017-06-18T02:01:42.274Z,9.10
2017-06-18T02:04:08.638Z,8.10
2017-06-18T02:06:35.191Z,8.07
2017-06-18T02:09:01.606Z,8.30
2017-06-18T02:11:28.051Z,9.17
2017-06-18T02:13:54.455Z,9.40
2017-06-18T02:16:20.909Z,9.10
2017-06-18T02:18:47.341Z,8.50
2017-06-18T02:21:13.705Z,9.13
2017-06-18T02:23:40.076Z,9.63
2017-06-18T02:26:06.449Z,9.43
2017-06-18T02:28:32.848Z,9.80
2017-06-18T02:30:59.247Z,8.90
2017-06-18T02:33:25.591Z,9.27
2017-06-18T02:35:51.960Z,8.90
2017-06-18T02:38:18.341Z,8.53
2017-06-18T02:40:44.696Z,9.40
2017-06-18T02:43:11.031Z,7.57
2017-06-18T02:45:49.744Z,7.57
2017-06-18T02:51:06.567Z,8.80
2017-06-18T02:58:50.372Z,7.50
2017-06-18T03:04:10.123Z,8.07
2017-06-18T03:26:51.959Z,7.73
2017-06-18T03:29:18.382Z,7.63
2017-06-18T03:31:44.765Z,7.40
2017-06-18T03:34:11.170Z,7.70
2017-06-18T03:36:37.538Z,7.73
2017-06-18T03:39:03.964Z,6.80
2017-06-18T03:41:30.303Z,7.67
2017-06-18T03:43:56.624Z,8.47
2017-06-18T03:46:22.961Z,8.43
2017-06-18T03:48:49.306Z,8.37
2017-06-18T03:51:15.650Z,8.30
2017-06-18T03:53:42.008Z,9.23
2017-06-18T03:56:08.351Z,8.70
2017-06-18T03:58:34.699Z,9.60
2017-06-18T04:01:01.062Z,8.70
2017-06-18T04:03:27.381Z,8.90
2017-06-18T04:05:53.733Z,8.40
2017-06-18T04:08:20.045Z,8.03
2017-06-18T04:10:46.386Z,7.63
2017-06-18T04:13:12.727Z,8.13
2017-06-18T04:15:39.050Z,8.70
2017-06-18T04:18:05.375Z,8.60
2017-06-18T04:20:31.749Z,8.57
2017-06-18T04:22:58.081Z,8.10
2017-06-18T04:25:24.429Z,7.60
2017-06-18T04:27:50.755Z,7.80
2017-06-18T04:30:17.158Z,7.70
2017-06-18T04:32:43.498Z,8.47
2017-06-18T04:35:10.270Z,7.20
2017-06-18T04:37:36.609Z,8.57
2017-06-18T04:40:03.077Z,9.40
2017-06-18T04:42:29.428Z,9.50
2017-06-18T04:44:55.776Z,10.37
2017-06-18T04:47:22.136Z,10.40
2017-06-18T04:49:48.454Z,11.60
2017-06-18T04:52:14.803Z,11.00
2017-06-18T04:54:41.160Z,10.90
2017-06-18T04:57:07.558Z,10.67
2017-06-18T04:59:33.951Z,10.50
2017-06-18T05:02:00.310Z,10.50
2017-06-18T05:04:26.649Z,11.47
2017-06-18T05:06:53.057Z,10.47
2017-06-18T05:09:19.428Z,12.30
2017-06-18T05:11:45.821Z,14.20
2017-06-18T05:14:12.210Z,13.17
2017-06-18T05:16:38.612Z,15.17
2017-06-18T05:19:04.986Z,12.37
2017-06-18T05:21:31.341Z,15.00
2017-06-18T05:23:57.717Z,16.57
2017-06-18T05:26:24.055Z,12.73
2017-06-18T05:28:50.391Z,13.13
2017-06-18T05:31:16.749Z,13.87
2017-06-18T05:33:43.114Z,12.37
2017-06-18T05:36:09.454Z,11.43
2017-06-18T05:38:35.817Z,14.70
2017-06-18T05:41:02.215Z,15.90
2017-06-18T05:43:28.594Z,14.07
2017-06-18T05:45:54.952Z,14.30
2017-06-18T05:48:21.332Z,15.70
2017-06-18T05:50:47.662Z,15.80
2017-06-18T05:53:14.121Z,17.47
2017-06-18T05:55:40.489Z,15.10
2017-06-18T05:58:06.838Z,13.90
2017-06-18T06:00:33.179Z,17.13
2017-06-18T06:02:59.582Z,17.03
2017-06-18T06:05:25.961Z,14.93
2017-06-18T06:07:52.345Z,14.40
2017-06-18T06:10:18.677Z,13.80
2017-06-18T06:12:45.016Z,13.50
2017-06-18T06:15:11.362Z,14.10
2017-06-18T06:17:37.732Z,12.10
2017-06-18T06:20:04.107Z,11.40
2017-06-18T06:22:30.482Z,11.13
2017-06-18T06:24:56.840Z,11.70
2017-06-18T06:27:23.184Z,11.37
2017-06-18T06:29:49.538Z,11.97
2017-06-18T06:32:15.885Z,10.37
2017-06-18T06:34:42.232Z,11.37
2017-06-18T06:37:08.568Z,11.43
2017-06-18T06:39:34.925Z,11.57
2017-06-18T06:42:01.260Z,10.43
2017-06-18T06:44:28.171Z,10.30
2017-06-18T06:46:54.617Z,11.53
2017-06-18T06:49:21.023Z,10.30
2017-06-18T06:51:47.465Z,9.10
2017-06-18T06:54:13.850Z,8.90
2017-06-18T06:56:40.286Z,7.63
2017-06-18T06:59:06.676Z,8.70
2017-06-18T07:01:33.119Z,8.80
2017-06-18T07:03:59.507Z,7.70
2017-06-18T07:06:26.444Z,7.53
2017-06-18T07:08:52.911Z,7.63
2017-06-18T07:11:19.319Z,7.17
2017-06-18T07:13:45.850Z,8.20
2017-06-18T07:16:12.310Z,8.13
2017-06-18T07:18:38.711Z,9.00
2017-06-18T07:21:05.061Z,9.07
2017-06-18T07:23:31.478Z,7.50
2017-06-18T07:25:57.839Z,8.13
2017-06-18T07:28:24.175Z,8.90
2017-06-18T07:30:50.515Z,8.10
2017-06-18T07:33:16.937Z,6.93
2017-06-18T07:35:51.833Z,6.67
2017-06-18T07:38:19.523Z,6.07
2017-06-18T07:40:49.198Z,7.17
2017-06-18T07:43:15.566Z,5.87
2017-06-18T07:45:42.010Z,6.33
2017-06-18T07:48:10.250Z,5.80
2017-06-18T07:53:31.506Z,7.00
2017-06-18T07:55:57.873Z,5.63
2017-06-18T07:58:24.227Z,5.47
2017-06-18T08:00:50.593Z,6.90
2017-06-18T08:03:16.923Z,6.80
2017-06-18T08:05:44.091Z,6.60
2017-06-18T08:08:10.459Z,5.23
2017-06-18T08:10:36.869Z,4.20
2017-06-18T08:13:03.281Z,4.70
2017-06-18T08:15:31.353Z,4.87
2017-06-18T08:17:57.904Z,5.30
2017-06-18T08:34:46.548Z,5.83
2017-06-18T08:37:13.911Z,5.60
2017-06-18T08:39:40.520Z,5.03
2017-06-18T08:42:06.969Z,5.30
2017-06-18T08:44:33.497Z,5.83
2017-06-18T08:46:59.917Z,5.40
2017-06-18T08:49:26.377Z,4.90
2017-06-18T08:51:52.885Z,5.27
2017-06-18T08:54:19.235Z,5.40
2017-06-18T08:56:45.619Z,5.87
2017-06-18T08:59:12.055Z,4.53
2017-06-18T09:01:38.509Z,4.40
2017-06-18T09:06:35.952Z,4.00
2017-06-18T09:09:02.426Z,3.67
2017-06-18T09:11:28.847Z,4.33
2017-06-18T09:13:55.234Z,2.97
2017-06-18T09:16:21.632Z,3.17
2017-06-18T09:18:48.145Z,3.53
2017-06-18T09:21:14.529Z,4.60
2017-06-18T09:23:40.926Z,3.90
2017-06-18T09:26:07.343Z,3.97
2017-06-18T09:28:33.713Z,3.20
2017-06-18T09:31:00.119Z,3.70
2017-06-18T09:33:26.441Z,4.10
2017-06-18T09:35:52.821Z,3.60
2017-06-18T09:38:19.299Z,3.40
2017-06-18T09:40:45.641Z,3.80
2017-06-18T09:43:11.995Z,3.73
2017-06-18T09:45:38.336Z,3.53
2017-06-18T09:48:04.768Z,3.23
2017-06-18T09:50:31.097Z,3.17
2017-06-18T09:52:57.444Z,2.77
2017-06-18T09:55:23.774Z,2.90
2017-06-18T09:57:50.145Z,2.57
2017-06-18T10:00:16.500Z,2.70
2017-06-18T10:02:42.862Z,3.00
2017-06-18T10:05:09.193Z,2.60
2017-06-18T10:07:35.537Z,2.70
2017-06-18T10:10:01.864Z,2.53
2017-06-18T10:12:28.198Z,3.17
2017-06-18T10:14:54.513Z,2.70
2017-06-18T10:17:20.862Z,3.10
2017-06-18T10:19:47.258Z,2.70
2017-06-18T10:22:14.426Z,3.10
2017-06-18T10:24:40.798Z,3.10
2017-06-18T10:27:07.141Z,2.63
2017-06-18T10:29:33.458Z,3.30
2017-06-18T10:31:59.795Z,3.10
2017-06-18T10:34:26.232Z,3.43
2017-06-18T10:36:52.564Z,3.10
2017-06-18T10:39:18.890Z,3.00
2017-06-18T10:41:45.258Z,2.60
2017-06-18T10:44:11.634Z,2.53
2017-06-18T10:46:37.983Z,2.80
2017-06-18T10:49:04.320Z,3.03
2017-06-18T10:51:30.668Z,2.87
2017-06-18T10:53:57.006Z,2.80
2017-06-18T10:56:23.342Z,2.80
2017-06-18T10:58:49.668Z,2.83
2017-06-18T11:01:16.088Z,2.57
2017-06-18T11:03:42.466Z,3.20
2017-06-18T11:06:08.828Z,2.97
2017-06-18T11:08:35.186Z,2.93
2017-06-18T11:11:01.526Z,2.70
2017-06-18T11:13:27.917Z,3.23
2017-06-18T11:15:54.246Z,2.67
2017-06-18T11:18:20.714Z,2.37
2017-06-18T11:20:47.170Z,2.93
2017-06-18T11:23:13.633Z,3.20
2017-06-18T11:25:40.044Z,2.33
2017-06-18T11:28:06.404Z,2.67
2017-06-18T11:30:33.065Z,2.60
2017-06-18T11:32:59.567Z,2.43
2017-06-18T11:35:25.993Z,2.63
2017-06-18T11:37:52.543Z,2.87
2017-06-18T11:40:18.969Z,3.00
2017-06-18T11:42:52.589Z,2.90
2017-06-18T11:45:19.005Z,2.63
2017-06-18T11:47:45.382Z,2.90
2017-06-18T11:50:14.573Z,3.10
2017-06-18T11:52:41.025Z,2.83
2017-06-18T11:57:54.515Z,3.30
2017-06-18T12:00:21.687Z,2.90
2017-06-18T12:02:52.139Z,3.43
2017-06-18T12:11:04.896Z,3.10
2017-06-18T12:13:32.460Z,2.77
2017-06-18T12:21:49.935Z,3.20
2017-06-18T12:24:18.680Z,2.60
2017-06-18T12:29:47.105Z,3.50
2017-06-18T12:32:15.183Z,2.80
2017-06-18T12:34:51.907Z,2.60
2017-06-18T12:37:20.704Z,2.70
2017-06-18T12:39:47.195Z,3.60
2017-06-18T12:42:14.935Z,3.33
2017-06-18T12:44:45.450Z,3.57
2017-06-18T12:47:12.806Z,2.60
2017-06-18T12:52:27.289Z,2.80
2017-06-18T12:54:53.896Z,2.87
2017-06-18T12:57:21.281Z,3.07
2017-06-18T12:59:47.919Z,2.70
2017-06-18T13:02:16.429Z,3.30
2017-06-18T13:04:43.349Z,3.27
2017-06-18T13:07:12.983Z,3.10
2017-06-18T13:12:22.001Z,3.90
2017-06-18T13:15:00.514Z,3.03
2017-06-18T13:17:27.154Z,3.20
2017-06-18T13:19:53.920Z,3.03
2017-06-18T13:22:20.484Z,5.27
2017-06-18T13:24:47.208Z,3.53
2017-06-18T13:27:13.556Z,3.10
2017-06-18T13:29:40.362Z,3.47
2017-06-18T13:32:07.030Z,2.70
2017-06-18T13:34:33.350Z,3.63
2017-06-18T13:36:59.775Z,3.20
2017-06-18T13:39:26.107Z,3.00
2017-06-18T13:41:52.793Z,3.83
2017-06-18T13:44:19.199Z,3.90
2017-06-18T13:46:45.775Z,4.17
2017-06-18T13:49:12.234Z,3.27
2017-06-18T13:51:38.615Z,2.57
2017-06-18T13:54:05.402Z,2.97
2017-06-18T13:56:38.849Z,3.07
2017-06-18T13:59:05.401Z,2.47
2017-06-18T14:01:32.275Z,3.20
2017-06-18T14:03:59.026Z,2.70
2017-06-18T14:06:26.115Z,2.97
2017-06-18T14:08:53.538Z,2.30
2017-06-18T14:11:20.398Z,2.60
2017-06-18T14:13:46.789Z,2.87
2017-06-18T14:16:13.333Z,2.80
2017-06-18T14:18:39.720Z,2.50
2017-06-18T14:21:06.484Z,2.60
2017-06-18T14:23:32.856Z,2.80
2017-06-18T14:25:59.274Z,2.27
2017-06-18T14:28:25.605Z,2.63
2017-06-18T14:30:52.221Z,2.93
2017-06-18T14:33:18.658Z,2.50
2017-06-18T14:35:45.021Z,2.10
2017-06-18T14:38:12.009Z,2.33
2017-06-18T14:40:39.531Z,2.30
2017-06-18T14:43:06.086Z,2.40
2017-06-18T14:45:32.508Z,2.10
2017-06-18T14:47:58.903Z,2.43
2017-06-18T14:50:26.818Z,2.70
2017-06-18T14:52:59.073Z,2.70
2017-06-18T14:55:25.821Z,2.20
2017-06-18T14:57:52.361Z,2.87
2017-06-18T15:00:19.075Z,2.83
2017-06-18T15:02:45.430Z,2.63
2017-06-18T15:05:11.778Z,2.20
2017-06-18T15:07:38.123Z,2.87
2017-06-18T15:10:04.736Z,2.43
2017-06-18T15:12:31.103Z,2.27
2017-06-18T15:14:57.506Z,2.67
2017-06-18T15:17:23.953Z,2.67
2017-06-18T15:19:50.915Z,3.10
2017-06-18T15:22:17.339Z,2.63
2017-06-18T15:24:43.774Z,2.60
2017-06-18T15:27:10.160Z,2.53
2017-06-18T15:29:36.582Z,2.40
2017-06-18T15:32:02.924Z,2.70
2017-06-18T15:34:29.628Z,2.40
2017-06-18T15:36:55.994Z,2.20
2017-06-18T15:39:22.366Z,2.70
2017-06-18T15:41:48.711Z,2.40
2017-06-18T15:44:15.060Z,2.70
2017-06-18T15:46:41.422Z,2.53
2017-06-18T15:49:07.766Z,2.20
2017-06-18T15:51:34.132Z,2.50
2017-06-18T15:54:00.500Z,2.53
2017-06-18T15:56:26.892Z,2.27
2017-06-18T15:58:53.243Z,2.70
2017-06-18T16:01:28.083Z,2.73
2017-06-18T16:03:54.413Z,2.67
2017-06-18T16:06:20.744Z,2.70
2017-06-18T16:08:47.153Z,2.20
2017-06-18T16:11:13.579Z,2.20
2017-06-18T16:13:40.863Z,2.47
2017-06-18T16:16:07.242Z,2.60
2017-06-18T16:18:33.599Z,2.40
2017-06-18T16:21:00.013Z,2.77
2017-06-18T16:23:26.408Z,2.73
2017-06-18T16:25:52.805Z,3.50
2017-06-18T16:28:19.686Z,3.00
2017-06-18T16:30:46.069Z,2.83
2017-06-18T16:33:12.445Z,2.67
2017-06-18T16:35:38.812Z,5.70
2017-06-18T16:38:05.204Z,4.07
2017-06-18T16:40:31.579Z,3.57
2017-06-18T16:42:58.025Z,3.07
2017-06-18T16:45:24.452Z,3.20
2017-06-18T16:47:50.831Z,3.03
2017-06-18T16:50:17.647Z,3.20
2017-06-18T16:52:44.608Z,3.20
2017-06-18T16:55:11.404Z,3.17
2017-06-18T16:57:39.854Z,3.23
2017-06-18T17:00:06.250Z,3.07
2017-06-18T17:02:32.570Z,3.10
2017-06-18T17:04:58.928Z,3.10
2017-06-18T17:07:25.743Z,3.17
2017-06-18T17:09:52.125Z,3.40
2017-06-18T17:12:18.501Z,3.27
2017-06-18T17:14:44.903Z,3.43
2017-06-18T17:17:11.286Z,2.50
2017-06-18T17:19:37.642Z,3.57
2017-06-18T17:22:09.950Z,2.90
2017-06-18T17:24:37.143Z,3.20
2017-06-18T17:27:04.289Z,3.03
2017-06-18T17:29:30.716Z,3.30
2017-06-18T17:31:57.205Z,3.17
2017-06-18T17:34:24.005Z,2.70
2017-06-18T17:36:50.396Z,3.43
2017-06-18T17:39:17.127Z,2.70
2017-06-18T17:41:43.476Z,3.10
2017-06-18T17:44:10.380Z,3.00
2017-06-18T17:46:36.857Z,2.83
2017-06-18T17:49:03.317Z,3.03
2017-06-18T17:51:30.161Z,3.73
2017-06-18T17:53:56.553Z,4.10
2017-06-18T17:56:23.317Z,2.60
2017-06-18T17:58:49.798Z,2.70
2017-06-18T18:01:16.294Z,2.47
2017-06-18T18:03:43.172Z,3.00
2017-06-18T18:06:10.937Z,2.80
2017-06-18T18:08:38.179Z,2.73
2017-06-18T18:11:04.583Z,2.80
2017-06-18T18:13:31.357Z,2.80
2017-06-18T18:15:57.914Z,3.00
2017-06-18T18:18:24.364Z,2.70
2017-06-18T18:20:50.895Z,3.10
2017-06-18T18:23:17.497Z,3.00
2017-06-18T18:25:43.837Z,2.63
2017-06-18T18:28:10.212Z,2.83
2017-06-18T18:30:36.646Z,2.87
2017-06-18T18:33:03.542Z,3.17
2017-06-18T18:35:30.283Z,2.90
2017-06-18T18:37:57.011Z,2.30
2017-06-18T18:40:23.561Z,2.90
2017-06-18T18:42:50.225Z,2.30
2017-06-18T18:45:17.448Z,2.93
2017-06-18T18:47:44.191Z,3.67
2017-06-18T18:50:11.104Z,3.33
2017-06-18T18:52:37.868Z,2.90
2017-06-18T18:55:04.825Z,2.83
2017-06-18T18:57:31.802Z,2.80
2017-06-18T18:59:58.728Z,3.03
2017-06-18T19:02:25.487Z,2.80
2017-06-18T19:04:52.425Z,2.87
2017-06-18T19:07:19.207Z,2.70
2017-06-18T19:09:46.468Z,2.80
2017-06-18T19:12:13.233Z,2.80
2017-06-18T19:14:40.208Z,3.30
2017-06-18T19:17:07.003Z,3.07
2017-06-18T19:19:33.939Z,2.70
2017-06-18T19:22:01.431Z,3.20
2017-06-18T19:24:28.251Z,3.70
2017-06-18T19:26:55.581Z,3.57
2017-06-18T19:29:23.273Z,2.90
2017-06-18T19:55:14.941Z,3.70
2017-06-18T19:57:41.403Z,3.23
2017-06-18T20:00:07.769Z,3.30
2017-06-18T20:02:34.126Z,3.30
2017-06-18T20:05:00.467Z,3.97
2017-06-18T20:07:26.830Z,3.80
2017-06-18T20:09:53.210Z,3.60
2017-06-18T20:12:19.602Z,3.33
2017-06-18T20:14:46.175Z,3.37
2017-06-18T20:17:12.564Z,4.37
2017-06-18T20:19:38.918Z,3.90
2017-06-18T20:22:05.534Z,3.63
2017-06-18T20:24:31.909Z,4.20
2017-06-18T20:26:58.272Z,3.10
2017-06-18T20:29:24.753Z,4.27
2017-06-18T20:31:51.126Z,3.30
2017-06-18T20:34:17.624Z,4.10
2017-06-18T20:36:44.066Z,4.07
2017-06-18T20:39:10.663Z,4.00
2017-06-18T20:41:37.044Z,4.60
2017-06-18T20:44:03.695Z,5.07
2017-06-18T20:46:30.054Z,4.80
2017-06-18T20:48:56.380Z,4.47
2017-06-18T20:51:22.869Z,5.90
2017-06-18T20:53:49.754Z,4.80
2017-06-18T20:56:16.233Z,5.30
2017-06-18T20:58:42.600Z,4.70
2017-06-18T21:01:08.950Z,5.03
2017-06-18T21:03:35.294Z,4.33
2017-06-18T21:06:02.001Z,4.37
2017-06-18T21:08:28.442Z,4.50
2017-06-18T21:10:54.853Z,5.20
2017-06-18T21:13:21.236Z,4.73
2017-06-18T21:15:47.600Z,5.00
2017-06-18T21:18:13.967Z,4.90
2017-06-18T21:20:40.313Z,4.97
2017-06-18T21:23:06.686Z,4.50
2017-06-18T21:25:33.062Z,4.47
2017-06-18T21:27:59.437Z,4.57
2017-06-18T21:30:25.771Z,5.00
2017-06-18T21:32:52.111Z,7.10
2017-06-18T21:55:34.843Z,5.07
2017-06-18T21:58:02.158Z,5.10
2017-06-18T22:00:28.914Z,5.27
2017-06-18T22:02:55.348Z,4.93
2017-06-18T22:05:21.767Z,5.03
2017-06-18T22:07:48.256Z,4.70
2017-06-18T22:10:14.598Z,4.70
2017-06-18T22:12:41.005Z,5.03
2017-06-18T22:15:07.509Z,4.80
2017-06-18T22:17:35.377Z,4.20
2017-06-18T22:20:01.876Z,5.37
2017-06-18T22:22:28.571Z,5.10
2017-06-18T22:24:55.023Z,5.43
2017-06-18T22:27:21.360Z,5.60
2017-06-18T22:29:47.670Z,5.47
2017-06-18T22:32:14.061Z,4.70
2017-06-18T22:34:40.472Z,5.00
2017-06-18T22:37:06.835Z,5.17
2017-06-18T22:39:33.217Z,5.00
2017-06-18T22:41:59.603Z,5.30
2017-06-18T22:44:25.969Z,4.90
2017-06-18T22:46:52.375Z,4.47
2017-06-18T22:49:18.861Z,4.60
2017-06-18T22:51:45.270Z,5.37
2017-06-18T22:54:11.695Z,4.90
2017-06-18T22:56:38.042Z,5.00
2017-06-18T22:59:04.497Z,5.80
2017-06-18T23:01:30.865Z,4.70
2017-06-18T23:03:57.252Z,5.13
2017-06-18T23:06:23.604Z,5.63
2017-06-18T23:08:49.983Z,5.10
2017-06-18T23:11:16.422Z,4.57
2017-06-18T23:13:42.801Z,5.73
2017-06-18T23:16:09.193Z,6.13
2017-06-18T23:18:35.535Z,5.20
2017-06-18T23:21:01.877Z,4.40
2017-06-18T23:23:28.210Z,5.03
2017-06-18T23:25:54.557Z,5.47
2017-06-18T23:28:21.002Z,5.00
2017-06-18T23:30:47.413Z,5.50
2017-06-18T23:33:13.754Z,5.20
2017-06-18T23:35:40.168Z,5.50
2017-06-18T23:38:06.560Z,5.23
2017-06-18T23:40:33.112Z,5.53
2017-06-18T23:43:00.048Z,4.70
2017-06-18T23:45:26.421Z,5.67
2017-06-18T23:47:52.774Z,5.07
2017-06-18T23:50:19.161Z,5.50
2017-06-18T23:52:45.680Z,5.23
2017-06-18T23:55:12.136Z,5.73
2017-06-18T23:57:38.581Z,5.00
